Time;durP1;ratioP1;P1;durP2;ratioP2;P2;SDS_P1;SDS_P2;PMS_P1;PMS_P2;Temp;Humidity;BMP_temperature;BMP_pressure;BME280_temperature;BME280_humidity;BME280_pressure;Samples;Min_cycle;Max_cycle;Signal;HPM_P1;HPM_P2
2022/08/14 04:01:18;;;;;;;10.93;8.80;;;19.90;99.90;;;;;;5552266;23;19922;-79
2022/08/14 04:03:45;;;;;;;11.75;8.57;;;19.80;99.90;;;;;;4933820;29;20036;-80
2022/08/14 04:06:11;;;;;;;10.00;8.68;;;19.80;99.90;;;;;;4937109;29;20083;-80
2022/08/14 04:08:38;;;;;;;10.77;8.32;;;19.80;99.90;;;;;;4935191;29;20095;-80
2022/08/14 04:11:05;;;;;;;11.20;8.43;;;19.80;99.90;;;;;;4927980;28;20480;-79
2022/08/14 04:13:34;;;;;;;13.00;8.52;;;19.70;99.90;;;;;;4916837;29;20055;-79
2022/08/14 04:16:20;;;;;;;10.25;8.82;;;19.70;99.90;;;;;;4917155;29;20036;-80
2022/08/14 04:18:49;;;;;;;11.07;9.07;;;19.70;99.90;;;;;;4916150;29;20046;-79
2022/08/14 04:21:16;;;;;;;10.98;9.05;;;19.60;99.90;;;;;;4915484;29;20040;-80
2022/08/14 04:23:44;;;;;;;11.45;8.40;;;19.60;99.90;;;;;;4915524;29;20127;-79
2022/08/14 04:26:11;;;;;;;10.98;8.75;;;19.60;99.90;;;;;;4918839;29;20044;-78
2022/08/14 04:28:40;;;;;;;10.40;9.00;;;19.60;99.90;;;;;;4921748;29;20052;-80
2022/08/14 04:31:06;;;;;;;10.65;8.98;;;19.60;99.90;;;;;;4921855;29;20099;-78
2022/08/14 04:33:33;;;;;;;11.55;9.48;;;19.50;99.90;;;;;;4921942;29;20048;-79
2022/08/14 04:35:59;;;;;;;11.40;9.32;;;19.50;99.90;;;;;;4922625;29;20472;-79
2022/08/14 04:43:53;;;;;;;9.82;8.23;;;19.40;99.90;;;;;;4921940;29;20087;-80
2022/08/14 04:46:22;;;;;;;10.80;8.40;;;19.40;99.90;;;;;;4922774;29;20502;-80
2022/08/14 04:48:49;;;;;;;11.63;9.15;;;19.50;99.90;;;;;;4923239;29;20097;-78
2022/08/14 04:51:17;;;;;;;10.55;9.40;;;19.50;99.90;;;;;;4923683;29;20052;-80
2022/08/14 04:53:45;;;;;;;11.00;9.25;;;19.50;99.90;;;;;;4906148;29;20048;-79
2022/08/14 04:56:12;;;;;;;13.38;9.63;;;19.50;99.90;;;;;;4923565;29;20040;-80
2022/08/14 04:58:38;;;;;;;11.75;9.30;;;19.50;99.90;;;;;;4923355;29;20043;-82
2022/08/14 05:01:06;;;;;;;11.10;8.88;;;19.50;99.90;;;;;;4921709;29;20505;-77
2022/08/14 05:03:34;;;;;;;12.85;9.23;;;19.60;99.90;;;;;;4922289;29;20103;-80
2022/08/14 05:06:03;;;;;;;14.32;8.98;;;19.60;99.90;;;;;;4921551;29;20460;-79
2022/08/14 05:08:29;;;;;;;10.85;9.10;;;19.60;99.90;;;;;;4923184;29;20046;-80
2022/08/14 05:10:57;;;;;;;13.38;9.60;;;19.60;99.90;;;;;;4921710;29;20044;-81
2022/08/14 05:13:25;;;;;;;9.93;8.65;;;19.60;99.90;;;;;;4921551;29;20135;-80
2022/08/14 05:15:53;;;;;;;11.65;9.45;;;19.60;99.90;;;;;;4921819;29;20052;-79
2022/08/14 05:18:22;;;;;;;13.45;9.68;;;19.70;99.90;;;;;;4921429;29;20086;-80
2022/08/14 05:20:51;;;;;;;13.68;9.38;;;19.70;99.90;;;;;;4905714;29;20107;-79
2022/08/14 05:23:23;;;;;;;11.48;9.50;;;19.80;99.90;;;;;;4922894;29;20055;-80
2022/08/14 05:25:53;;;;;;;12.95;9.95;;;19.70;99.90;;;;;;4921331;29;20131;-80
2022/08/14 05:28:24;;;;;;;13.82;10.15;;;19.80;99.90;;;;;;4905716;29;20036;-81
2022/08/14 05:30:52;;;;;;;12.55;8.77;;;19.80;99.90;;;;;;4921608;29;20082;-79
2022/08/14 05:33:21;;;;;;;10.70;9.15;;;19.90;99.90;;;;;;4922996;29;20043;-80
2022/08/14 05:35:47;;;;;;;12.77;9.52;;;19.90;99.90;;;;;;4921446;29;20055;-79
2022/08/14 05:38:16;;;;;;;11.00;9.45;;;19.90;99.90;;;;;;4918489;29;20103;-79
2022/08/14 05:40:43;;;;;;;11.32;9.05;;;20.00;99.90;;;;;;4902716;29;20063;-81
2022/08/14 05:43:09;;;;;;;10.60;9.00;;;20.00;99.90;;;;;;4918478;29;20047;-81
2022/08/14 05:45:34;;;;;;;12.75;9.38;;;20.10;99.90;;;;;;4919736;29;20040;-81
2022/08/14 05:48:01;;;;;;;10.48;8.48;;;20.10;99.90;;;;;;4918398;29;20036;-81
2022/08/14 05:50:28;;;;;;;13.32;9.70;;;20.10;99.90;;;;;;4918140;29;20399;-81
2022/08/14 05:52:53;;;;;;;11.02;9.52;;;20.20;99.90;;;;;;4918357;29;20107;-80
2022/08/14 05:55:20;;;;;;;11.65;9.00;;;20.20;99.90;;;;;;4918838;29;20036;-80
2022/08/14 05:57:53;;;;;;;12.90;9.60;;;20.30;99.90;;;;;;4902492;29;20103;-80
2022/08/14 06:00:24;;;;;;;11.13;8.98;;;20.30;99.90;;;;;;4920035;29;20055;-80
2022/08/14 06:02:50;;;;;;;10.77;8.77;;;20.30;99.90;;;;;;4918151;29;20131;-81
2022/08/14 06:05:16;;;;;;;13.02;8.98;;;20.40;99.90;;;;;;4918522;29;20119;-80
2022/08/14 06:07:42;;;;;;;15.27;9.52;;;20.40;99.90;;;;;;4902855;29;20087;-81
2022/08/14 06:10:09;;;;;;;12.00;9.02;;;20.40;99.90;;;;;;4917746;29;20040;-81
2022/08/14 06:12:35;;;;;;;11.65;8.82;;;20.50;99.90;;;;;;4919145;29;20040;-81
2022/08/14 06:15:01;;;;;;;9.85;8.43;;;20.50;99.90;;;;;;4902429;29;20048;-81
2022/08/14 06:17:26;;;;;;;10.75;8.90;;;20.60;99.90;;;;;;4919181;29;20044;-81
2022/08/14 06:19:52;;;;;;;9.95;8.55;;;20.60;99.90;;;;;;4917717;29;20128;-79
2022/08/14 06:22:19;;;;;;;12.00;8.65;;;20.70;99.90;;;;;;4917750;29;20044;-79
2022/08/14 06:24:45;;;;;;;9.63;7.97;;;20.70;99.90;;;;;;4918737;29;20578;-83
2022/08/14 06:27:10;;;;;;;12.15;9.07;;;20.80;99.90;;;;;;4936235;29;20123;-82
2022/08/14 06:29:37;;;;;;;11.70;8.80;;;20.80;99.90;;;;;;4938262;29;20368;-81
2022/08/14 06:32:04;;;;;;;12.30;8.55;;;20.90;99.90;;;;;;4937729;29;20072;-80
2022/08/14 06:34:30;;;;;;;9.90;7.97;;;20.90;99.90;;;;;;4936331;29;20043;-81
2022/08/14 06:36:55;;;;;;;9.35;8.35;;;21.00;99.90;;;;;;4936525;29;20079;-82
2022/08/14 06:39:22;;;;;;;11.82;8.45;;;21.10;99.90;;;;;;4920683;29;20134;-83
2022/08/14 06:41:48;;;;;;;11.07;8.27;;;21.10;99.90;;;;;;4937028;29;20078;-81
2022/08/14 06:44:13;;;;;;;9.73;7.95;;;21.20;99.90;;;;;;4937095;29;20192;-81
2022/08/14 06:46:39;;;;;;;9.25;8.07;;;21.30;99.90;;;;;;4937494;29;20388;-84
2022/08/14 06:49:06;;;;;;;9.52;8.00;;;21.30;99.90;;;;;;4935533;29;20040;-83
2022/08/14 06:51:32;;;;;;;11.50;8.02;;;21.30;99.90;;;;;;4936138;29;20047;-84
2022/08/14 06:54:00;;;;;;;13.18;8.05;;;21.40;99.90;;;;;;4934546;29;20488;-79
2022/08/14 06:57:07;;;;;;;12.10;7.70;;;21.50;99.90;;;;;;4937646;29;20039;-86
2022/08/14 06:59:32;;;;;;;9.27;7.53;;;21.60;99.90;;;;;;4936918;29;20047;-86
2022/08/14 07:07:38;;;;;;;9.30;7.78;;;21.90;99.90;;;;;;4937329;29;20055;-80
2022/08/14 07:12:46;;;;;;;9.52;7.35;;;22.00;99.90;;;;;;5034318;23;20051;-84
2022/08/14 07:15:21;;;;;;;12.30;7.72;;;22.10;99.90;;;;;;4940361;29;20390;-81
2022/08/14 07:17:49;;;;;;;8.93;7.53;;;22.20;99.90;;;;;;4956652;28;20039;-82
2022/08/14 07:20:19;;;;;;;11.13;8.40;;;22.30;99.90;;;;;;4955131;29;20050;-79
2022/08/14 07:22:46;;;;;;;12.98;8.02;;;22.40;99.90;;;;;;4955913;29;20499;-80
2022/08/14 07:25:12;;;;;;;10.88;7.80;;;22.50;99.90;;;;;;4938726;29;20049;-83
2022/08/14 07:27:39;;;;;;;12.02;8.52;;;22.50;99.90;;;;;;4954822;29;20050;-78
2022/08/14 07:30:05;;;;;;;10.32;7.95;;;22.60;99.90;;;;;;4955595;29;20110;-79
2022/08/14 07:32:34;;;;;;;15.02;8.38;;;22.60;99.90;;;;;;4954985;29;20054;-81
2022/08/14 07:35:03;;;;;;;9.38;7.65;;;22.70;99.90;;;;;;4954881;29;20043;-78
2022/08/14 07:37:29;;;;;;;10.73;7.60;;;22.80;99.90;;;;;;4956597;29;20475;-80
2022/08/14 07:40:28;;;;;;;9.23;7.72;;;22.80;99.90;;;;;;4954760;29;20126;-85
2022/08/14 07:43:13;;;;;;;;;;;;;;;;;;;;;
2022/08/14 07:45:40;;;;;;;12.27;7.53;;;22.90;99.90;;;;;;4952868;29;20523;-86
2022/08/14 07:48:08;;;;;;;10.85;7.47;;;23.00;99.90;;;;;;4937673;29;20082;-87
2022/08/14 07:50:56;;;;;;;;;;;;;;;;;;;;;
2022/08/14 07:53:36;;;;;;;8.88;7.03;;;23.20;99.90;;;;;;4954975;29;20058;-86
2022/08/14 07:56:11;;;;;;;8.45;7.22;;;23.30;99.90;;;;;;4956814;28;20094;-86
2022/08/14 07:59:03;;;;;;;;;;;;;;;;;;;;;
2022/08/14 08:01:30;;;;;;;10.68;7.28;;;23.40;99.90;;;;;;4955637;28;20114;-87
2022/08/14 08:03:58;;;;;;;9.18;6.88;;;23.50;99.90;;;;;;4957262;28;20051;-87
2022/08/14 08:06:24;;;;;;;11.82;8.98;;;23.50;99.90;;;;;;4973394;28;20061;-86
2022/08/14 08:08:54;;;;;;;7.97;7.07;;;23.60;99.90;;;;;;4973195;28;20101;-86
2022/08/14 08:11:23;;;;;;;10.90;6.30;;;23.70;99.90;;;;;;4957339;28;20055;-85
2022/08/14 08:13:50;;;;;;;9.45;7.38;;;23.80;99.90;;;;;;4941256;28;20070;-86
2022/08/14 08:17:13;;;;;;;9.35;7.05;;;23.90;99.90;;;;;;4957026;28;20066;-85
2022/08/14 08:19:56;;;;;;;8.57;6.57;;;24.00;99.90;;;;;;4937600;28;20499;-84
2022/08/14 08:22:24;;;;;;;11.25;6.88;;;24.10;99.90;;;;;;4939228;29;20067;-86
2022/08/14 08:24:50;;;;;;;8.85;6.10;;;24.20;99.90;;;;;;4939840;29;20070;-86
2022/08/14 08:27:18;;;;;;;8.30;6.60;;;24.30;99.90;;;;;;4955817;28;20497;-86
2022/08/14 08:29:47;;;;;;;8.30;6.57;;;24.40;99.90;;;;;;4938997;29;20387;-87
2022/08/14 08:32:15;;;;;;;10.65;6.90;;;24.50;99.90;;;;;;4938976;29;20387;-86
2022/08/14 08:35:24;;;;;;;8.48;6.90;;;24.60;99.90;;;;;;4939167;29;20043;-86
2022/08/14 08:38:00;;;;;;;10.02;6.50;;;24.80;99.90;;;;;;4951497;29;20105;-85
2022/08/14 08:40:35;;;;;;;7.15;6.45;;;24.90;99.90;;;;;;4953940;29;20127;-86
2022/08/14 08:43:17;;;;;;;9.45;6.00;;;25.10;99.90;;;;;;4956278;28;20047;-88
2022/08/14 08:45:45;;;;;;;7.65;6.25;;;25.20;99.90;;;;;;4955334;29;20039;-85
2022/08/14 08:48:11;;;;;;;9.55;6.10;;;25.30;99.90;;;;;;4939289;29;20036;-85
2022/08/14 08:50:56;;;;;;;6.90;5.90;;;25.50;99.90;;;;;;4938351;29;20391;-86
2022/08/14 08:53:21;;;;;;;9.52;6.40;;;25.60;99.90;;;;;;4937925;29;20047;-87
2022/08/14 08:55:49;;;;;;;6.55;5.85;;;25.70;99.90;;;;;;4955580;28;20491;-86
2022/08/14 08:58:17;;;;;;;8.15;5.68;;;25.80;99.90;;;;;;4953438;29;20047;-86
2022/08/14 09:00:50;;;;;;;6.32;5.10;;;26.00;99.90;;;;;;4954541;29;20098;-87
2022/08/14 09:06:07;;;;;;;7.63;5.68;;;26.20;99.90;;;;;;4953874;29;20455;-86
2022/08/14 09:12:06;;;;;;;7.05;5.70;;;26.50;99.90;;;;;;4898389;29;20094;-87
2022/08/14 09:14:35;;;;;;;5.85;5.18;;;26.60;99.90;;;;;;4937697;29;20139;-86
2022/08/14 09:17:36;;;;;;;7.63;5.60;;;26.60;99.90;;;;;;4938226;29;20510;-86
2022/08/14 09:20:08;;;;;;;7.13;5.70;;;26.80;99.90;;;;;;4906183;29;20467;-86
2022/08/14 09:25:26;;;;;;;8.63;5.55;;;27.10;99.90;;;;;;4937264;29;20051;-86
2022/08/14 09:28:11;;;;;;;8.70;5.97;;;27.30;99.90;;;;;;4905648;29;20051;-85
2022/08/14 09:30:54;;;;;;;9.50;5.45;;;27.40;99.90;;;;;;4920989;29;20043;-86
2022/08/14 09:33:43;;;;;;;6.78;5.45;;;27.50;99.90;;;;;;4920653;29;20095;-86
2022/08/14 09:36:32;;;;;;;5.75;5.15;;;27.60;99.90;;;;;;4906015;29;20035;-86
2022/08/14 09:39:29;;;;;;;8.05;5.60;;;27.70;99.90;;;;;;4939401;29;20043;-85
2022/08/14 09:46:48;;;;;;;7.75;5.25;;;27.90;99.90;;;;;;4936775;29;20054;-87
2022/08/14 09:49:39;;;;;;;7.63;5.40;;;28.10;99.90;;;;;;4833127;29;20144;-86
2022/08/14 09:52:13;;;;;;;5.95;5.35;;;28.30;99.90;;;;;;4846799;29;20053;-86
2022/08/14 09:54:47;;;;;;;5.67;5.00;;;28.40;99.90;;;;;;4864720;29;20056;-85
2022/08/14 09:57:29;;;;;;;6.37;5.10;;;28.50;99.90;;;;;;4880502;29;20128;-86
2022/08/14 09:59:55;;;;;;;10.57;5.63;;;28.60;99.90;;;;;;4896311;29;20095;-86
2022/08/14 10:03:02;;;;;;;6.18;5.22;;;28.60;99.90;;;;;;4936755;29;20080;-86
2022/08/14 10:05:56;;;;;;;7.30;5.90;;;28.80;99.90;;;;;;4886779;29;20606;-86
2022/08/14 10:08:38;;;;;;;6.53;5.30;;;28.80;99.90;;;;;;4903428;29;20501;-85
2022/08/14 10:11:37;;;;;;;8.07;5.43;;;28.90;99.90;;;;;;4919833;29;20087;-86
2022/08/14 10:14:37;;;;;;;;;;;;;;;;;;;;;
2022/08/14 10:17:08;;;;;;;9.43;5.50;;;29.00;99.70;;;;;;4956265;29;20054;-85
2022/08/14 10:20:11;;;;;;;6.28;5.40;;;29.20;99.70;;;;;;4957983;28;20035;-86
2022/08/14 10:23:43;;;;;;;;;;;;;;;;;;;;;
2022/08/14 10:26:53;;;;;;;;;;;;;;;;;;;;;
2022/08/14 10:33:35;;;;;;;7.80;4.85;;;29.60;99.20;;;;;;4885433;29;20051;-84
2022/08/14 11:05:25;;;;;;;5.97;4.85;;;30.50;96.00;;;;;;4913047;29;20047;-85
2022/08/14 11:12:02;;;;;;;6.18;4.43;;;30.60;95.00;;;;;;4817460;29;20432;-86
2022/08/14 11:15:00;;;;;;;;;;;;;;;;;;;;;
2022/08/14 11:18:05;;;;;;;;;;;;;;;;;;;;;
2022/08/14 11:39:42;;;;;;;4.90;4.35;;;31.00;91.90;;;;;;2953245;23;20063;-85
2022/08/14 14:33:59;;;;;;;5.90;4.63;;;31.00;81.60;;;;;;4955673;29;20480;-86
2022/08/14 15:23:26;;;;;;;5.30;4.13;;;31.40;79.80;;;;;;5176600;23;20440;-81
2022/08/14 15:25:51;;;;;;;5.10;4.47;;;31.40;78.90;;;;;;4938068;29;20044;-83
2022/08/14 15:31:58;;;;;;;5.07;4.57;;;31.50;78.60;;;;;;4942037;29;20048;-81
2022/08/14 15:34:27;;;;;;;5.00;4.50;;;31.50;79.10;;;;;;4942443;29;20047;-81
2022/08/14 15:36:53;;;;;;;7.95;4.88;;;31.30;80.30;;;;;;4942840;29;20048;-86
2022/08/14 15:39:18;;;;;;;5.40;4.82;;;31.10;80.30;;;;;;4939202;29;20063;-86
2022/08/14 15:41:44;;;;;;;5.55;4.80;;;30.90;79.90;;;;;;4938066;29;20048;-82
2022/08/14 15:44:12;;;;;;;5.70;4.72;;;30.80;80.30;;;;;;4937703;29;20031;-85
2022/08/14 15:46:37;;;;;;;6.95;4.90;;;30.80;80.30;;;;;;4921646;29;20043;-82
2022/08/14 15:49:04;;;;;;;7.93;5.55;;;30.80;80.00;;;;;;4934802;29;20046;-82
2022/08/14 15:51:30;;;;;;;7.15;4.85;;;30.90;80.10;;;;;;4934883;29;20115;-83
2022/08/14 15:53:57;;;;;;;6.65;4.65;;;30.90;80.10;;;;;;4919292;29;20493;-83
2022/08/14 15:56:23;;;;;;;6.15;4.68;;;30.90;79.80;;;;;;4937015;29;20052;-84
2022/08/14 15:58:49;;;;;;;5.30;4.75;;;30.90;79.20;;;;;;4937013;29;20043;-83
2022/08/14 16:01:22;;;;;;;5.18;4.68;;;30.90;79.30;;;;;;4935437;29;20052;-85
2022/08/14 16:03:52;;;;;;;7.53;4.95;;;30.80;79.50;;;;;;4935385;29;20503;-83
2022/08/14 16:06:20;;;;;;;5.53;4.93;;;30.90;80.50;;;;;;4936353;29;20536;-83
2022/08/14 16:08:49;;;;;;;4.68;4.22;;;30.80;80.80;;;;;;4935107;29;20044;-84
2022/08/14 16:11:15;;;;;;;4.90;4.45;;;30.90;81.30;;;;;;4935269;29;20040;-84
2022/08/14 16:13:43;;;;;;;8.38;4.90;;;30.90;80.90;;;;;;4919478;29;20040;-82
2022/08/14 16:16:23;;;;;;;5.57;4.80;;;31.00;80.20;;;;;;4919573;29;20072;-83
2022/08/14 16:18:51;;;;;;;5.00;4.40;;;31.00;80.60;;;;;;4936597;29;20044;-86
2022/08/14 16:21:20;;;;;;;5.22;4.40;;;30.90;79.70;;;;;;4917395;29;20392;-85
2022/08/14 16:23:47;;;;;;;4.68;4.25;;;30.90;79.10;;;;;;4943203;29;20031;-83
2022/08/14 16:26:19;;;;;;;6.93;4.70;;;30.90;80.30;;;;;;4936363;29;20132;-82
2022/08/14 16:29:08;;;;;;;8.40;4.75;;;30.90;81.90;;;;;;4953669;29;20043;-82
2022/08/14 16:31:40;;;;;;;6.25;4.55;;;30.90;82.00;;;;;;4936317;29;20047;-83
2022/08/14 16:34:15;;;;;;;6.10;4.68;;;30.80;82.50;;;;;;4953722;29;20049;-86
2022/08/14 16:36:41;;;;;;;7.07;5.03;;;30.80;83.00;;;;;;4955040;29;20090;-84
2022/08/14 16:39:07;;;;;;;5.10;4.60;;;30.80;82.30;;;;;;4955495;29;20047;-81
2022/08/14 16:41:34;;;;;;;7.70;4.90;;;30.80;81.00;;;;;;4938425;29;20407;-82
2022/08/14 16:44:12;;;;;;;4.97;4.43;;;30.70;81.20;;;;;;4955179;29;20111;-83
2022/08/14 16:46:43;;;;;;;5.57;5.00;;;30.60;82.00;;;;;;4955311;29;20043;-82
2022/08/14 16:49:10;;;;;;;5.13;4.50;;;30.60;82.00;;;;;;4938071;29;20043;-83
2022/08/14 16:51:39;;;;;;;5.65;4.45;;;30.50;81.90;;;;;;4939083;29;20373;-83
2022/08/14 16:54:10;;;;;;;8.52;5.63;;;30.40;82.20;;;;;;4937812;29;20055;-84
2022/08/14 16:56:36;;;;;;;7.53;5.20;;;30.40;82.30;;;;;;4955285;29;20051;-85
2022/08/14 16:59:08;;;;;;;9.20;4.65;;;30.30;82.30;;;;;;4921767;29;20479;-82
2022/08/14 17:01:34;;;;;;;5.50;5.00;;;30.20;82.30;;;;;;4954877;28;20043;-83
2022/08/14 17:04:02;;;;;;;6.78;5.13;;;30.10;82.70;;;;;;4954808;29;20031;-83
2022/08/14 17:06:40;;;;;;;9.15;4.50;;;30.00;82.60;;;;;;4921690;29;20053;-83
2022/08/14 17:09:07;;;;;;;4.95;4.53;;;29.90;83.00;;;;;;4955137;29;20062;-84
2022/08/14 17:11:47;;;;;;;5.50;4.90;;;29.80;83.00;;;;;;4937485;29;20047;-82
2022/08/14 17:14:13;;;;;;;7.32;5.22;;;29.70;84.00;;;;;;4955046;29;20093;-85
2022/08/14 17:16:39;;;;;;;5.57;5.07;;;29.60;84.30;;;;;;4955830;29;20043;-82
2022/08/14 17:19:06;;;;;;;6.55;4.50;;;29.60;84.40;;;;;;4937821;29;20126;-85
2022/08/14 17:21:37;;;;;;;7.22;4.90;;;29.50;84.40;;;;;;4954997;28;20047;-84
2022/08/14 17:24:05;;;;;;;6.13;5.15;;;29.40;84.60;;;;;;4937679;29;20043;-84
2022/08/14 17:26:43;;;;;;;5.53;4.30;;;29.40;84.80;;;;;;4954481;29;20047;-83
2022/08/14 17:29:13;;;;;;;6.55;4.65;;;29.30;85.10;;;;;;4954964;29;20052;-85
2022/08/14 17:31:42;;;;;;;9.85;5.15;;;29.20;85.40;;;;;;4954460;28;20051;-83
2022/08/14 17:34:09;;;;;;;6.18;4.82;;;29.20;86.60;;;;;;4938961;29;20077;-84
2022/08/14 17:36:35;;;;;;;5.28;4.75;;;29.10;86.60;;;;;;4925331;29;20035;-84
2022/08/14 17:39:04;;;;;;;6.63;5.22;;;29.10;86.60;;;;;;4940863;29;20043;-83
2022/08/14 17:41:32;;;;;;;6.70;5.07;;;29.00;87.80;;;;;;4958099;28;20050;-84
2022/08/14 17:44:12;;;;;;;5.40;4.90;;;29.00;90.00;;;;;;4940623;29;20051;-84
2022/08/14 17:47:08;;;;;;;5.75;5.15;;;28.90;90.40;;;;;;4958133;29;20074;-85
2022/08/14 17:49:45;;;;;;;5.82;5.13;;;28.80;90.70;;;;;;4954857;29;20043;-83
2022/08/14 17:52:14;;;;;;;6.55;5.25;;;28.70;90.90;;;;;;4957985;28;20078;-84
2022/08/14 17:54:46;;;;;;;6.38;5.45;;;28.60;90.90;;;;;;4958079;29;20069;-84
2022/08/14 17:57:23;;;;;;;6.13;5.45;;;28.60;91.10;;;;;;4940575;29;20115;-84
2022/08/14 17:59:50;;;;;;;5.80;5.07;;;28.50;91.10;;;;;;4940379;29;20068;-84
2022/08/14 18:02:26;;;;;;;9.38;5.20;;;28.40;91.50;;;;;;4940596;29;20047;-85
2022/08/14 18:04:58;;;;;;;7.82;4.97;;;28.40;91.70;;;;;;4940399;29;20046;-84
2022/08/14 18:07:25;;;;;;;8.35;5.38;;;28.30;91.90;;;;;;4957617;29;20048;-82
2022/08/14 18:09:54;;;;;;;8.85;5.30;;;28.30;92.60;;;;;;4940693;29;20043;-85
2022/08/14 18:12:22;;;;;;;8.02;5.00;;;28.20;92.20;;;;;;4940133;29;20043;-85
2022/08/14 18:14:52;;;;;;;6.55;4.95;;;28.20;92.90;;;;;;4924558;29;20051;-82
2022/08/14 18:17:22;;;;;;;13.70;5.47;;;28.10;92.10;;;;;;4941165;29;20043;-84
2022/08/14 18:19:49;;;;;;;11.30;5.63;;;28.00;92.90;;;;;;4938950;29;20051;-83
2022/08/14 18:22:16;;;;;;;12.10;5.50;;;28.00;93.70;;;;;;4939372;28;20051;-83
2022/08/14 18:24:43;;;;;;;11.60;5.85;;;27.90;94.30;;;;;;4940086;29;20122;-84
2022/08/14 18:27:21;;;;;;;6.45;5.38;;;27.80;94.30;;;;;;4939597;29;20055;-83
2022/08/14 18:29:56;;;;;;;8.57;6.88;;;27.70;93.60;;;;;;4940115;29;20063;-85
2022/08/14 18:32:30;;;;;;;9.35;6.55;;;27.70;94.10;;;;;;4957018;28;20157;-86
2022/08/14 18:35:06;;;;;;;6.93;6.22;;;27.50;94.70;;;;;;4921075;29;20126;-85
2022/08/14 18:37:32;;;;;;;12.10;6.32;;;27.50;94.80;;;;;;4936701;29;20047;-84
2022/08/14 18:40:32;;;;;;;8.10;6.32;;;27.40;95.10;;;;;;4937090;29;20059;-85
2022/08/14 18:42:59;;;;;;;6.38;5.68;;;27.40;95.90;;;;;;4916985;29;20498;-84
2022/08/14 18:45:30;;;;;;;8.02;6.35;;;27.30;96.90;;;;;;4936945;29;20052;-83
2022/08/14 18:48:06;;;;;;;8.98;5.90;;;27.20;97.20;;;;;;4937012;29;20047;-85
2022/08/14 18:50:44;;;;;;;9.80;6.13;;;27.20;97.30;;;;;;4921179;29;20127;-81
2022/08/14 18:53:11;;;;;;;8.20;6.20;;;27.10;97.80;;;;;;4938945;29;20047;-82
2022/08/14 18:55:39;;;;;;;6.57;5.80;;;27.00;97.60;;;;;;4920985;29;20119;-83
2022/08/14 18:58:05;;;;;;;7.22;5.40;;;26.90;97.90;;;;;;4921175;29;20047;-84
2022/08/14 19:00:38;;;;;;;7.80;5.70;;;26.90;98.20;;;;;;4936777;29;20399;-83
2022/08/14 19:03:32;;;;;;;9.43;6.22;;;26.80;98.10;;;;;;4938257;29;20052;-83
2022/08/14 19:06:00;;;;;;;6.43;5.82;;;26.70;98.60;;;;;;4914457;29;20159;-83
2022/08/14 19:08:41;;;;;;;7.63;5.82;;;26.70;98.90;;;;;;4937189;29;20119;-79
2022/08/14 19:11:38;;;;;;;7.68;5.55;;;26.60;99.00;;;;;;4936791;29;20043;-84
2022/08/14 19:14:05;;;;;;;6.40;5.57;;;26.60;99.20;;;;;;4934655;29;20091;-84
2022/08/14 19:16:36;;;;;;;9.45;6.00;;;26.50;99.80;;;;;;4935646;29;20543;-83
2022/08/14 19:19:05;;;;;;;6.90;5.88;;;26.50;99.90;;;;;;4935204;29;20051;-81
2022/08/14 19:21:52;;;;;;;9.15;6.47;;;26.40;99.90;;;;;;4934865;29;20522;-83
2022/08/14 19:24:39;;;;;;;6.53;5.47;;;26.40;99.90;;;;;;4935730;29;20067;-84
2022/08/14 19:27:19;;;;;;;9.30;6.57;;;26.30;99.90;;;;;;4935996;29;20051;-84
2022/08/14 19:29:44;;;;;;;9.18;6.82;;;26.30;99.90;;;;;;4937219;29;20039;-83
2022/08/14 19:32:32;;;;;;;9.40;6.68;;;26.20;99.90;;;;;;4937113;29;20063;-83
2022/08/14 19:34:58;;;;;;;7.55;6.20;;;26.10;99.90;;;;;;4935577;29;20083;-84
2022/08/14 19:37:46;;;;;;;8.10;6.45;;;26.10;99.90;;;;;;4935691;29;20149;-84
2022/08/14 19:40:13;;;;;;;8.48;5.97;;;26.00;99.90;;;;;;4935561;29;20058;-83
2022/08/14 19:42:40;;;;;;;9.20;7.18;;;26.00;99.90;;;;;;4935267;29;20407;-82
2022/08/14 19:45:13;;;;;;;7.55;6.38;;;25.90;99.90;;;;;;4935241;29;20050;-83
2022/08/14 19:47:47;;;;;;;10.50;6.68;;;25.90;99.90;;;;;;4936345;29;20043;-79
2022/08/14 19:50:46;;;;;;;;;;;;;;;;;;;;;
2022/08/14 19:53:13;;;;;;;9.70;6.75;;;25.70;99.90;;;;;;4856730;29;20048;-85
2022/08/14 19:55:40;;;;;;;8.75;6.82;;;25.70;99.90;;;;;;4935469;29;20068;-86
2022/08/14 19:58:08;;;;;;;7.55;6.70;;;25.60;99.90;;;;;;4934790;29;20054;-78
2022/08/14 20:00:34;;;;;;;9.48;6.95;;;25.50;99.90;;;;;;4936938;29;20083;-87
2022/08/14 20:03:10;;;;;;;8.07;6.85;;;25.50;99.90;;;;;;4936733;29;20086;-84
2022/08/14 20:05:36;;;;;;;7.72;6.50;;;25.40;99.90;;;;;;4936089;29;20488;-82
2022/08/14 20:08:04;;;;;;;11.57;7.10;;;25.40;99.90;;;;;;4937588;29;20050;-85
2022/08/14 20:10:36;;;;;;;9.15;7.15;;;25.30;99.90;;;;;;4938052;29;20087;-85
2022/08/14 20:13:06;;;;;;;9.00;6.93;;;25.20;99.90;;;;;;4937517;29;20544;-88
2022/08/14 20:15:35;;;;;;;9.52;7.45;;;25.20;99.90;;;;;;4936595;29;20087;-82
2022/08/14 20:18:04;;;;;;;8.43;7.20;;;25.10;99.90;;;;;;4936740;29;20134;-85
2022/08/14 20:20:33;;;;;;;8.43;7.38;;;25.00;99.90;;;;;;4936788;29;20062;-83
2022/08/14 20:23:01;;;;;;;10.10;8.35;;;25.00;99.90;;;;;;4936162;29;20067;-83
2022/08/14 20:25:35;;;;;;;10.13;7.30;;;24.90;99.90;;;;;;4934771;29;20040;-82
2022/08/14 20:28:23;;;;;;;10.27;7.70;;;24.90;99.90;;;;;;4935261;29;20050;-84
2022/08/14 20:30:53;;;;;;;8.02;7.20;;;24.80;99.90;;;;;;4918840;29;20412;-84
2022/08/14 20:33:20;;;;;;;9.27;7.10;;;24.80;99.90;;;;;;4918905;29;20416;-82
2022/08/14 20:35:53;;;;;;;8.15;7.45;;;24.70;99.90;;;;;;4935552;29;20043;-83
2022/08/14 20:38:26;;;;;;;9.38;7.95;;;24.70;99.90;;;;;;4935199;29;20389;-83
2022/08/14 20:41:08;;;;;;;8.30;7.38;;;24.60;99.90;;;;;;4934862;29;20086;-82
2022/08/14 20:46:29;;;;;;;9.32;7.75;;;24.50;99.90;;;;;;4900121;29;20142;-83
2022/08/14 20:49:05;;;;;;;9.57;8.25;;;24.50;99.90;;;;;;4914788;29;20063;-82
2022/08/14 20:51:42;;;;;;;12.20;7.97;;;24.40;99.90;;;;;;4914765;29;20142;-82
2022/08/14 20:54:13;;;;;;;8.38;7.45;;;24.40;99.90;;;;;;4915072;29;20616;-86
2022/08/14 20:56:41;;;;;;;10.95;8.02;;;24.30;99.90;;;;;;4914892;29;20059;-83
2022/08/14 20:59:14;;;;;;;10.18;7.78;;;24.30;99.90;;;;;;4914688;29;20063;-82
2022/08/14 21:01:41;;;;;;;11.73;8.40;;;24.30;99.90;;;;;;4914793;29;20054;-85
2022/08/14 21:04:24;;;;;;;13.45;8.25;;;24.30;99.90;;;;;;4914685;29;20185;-82
2022/08/14 21:06:52;;;;;;;9.27;8.07;;;24.30;99.90;;;;;;4914972;29;20055;-82
2022/08/14 21:09:24;;;;;;;11.95;8.30;;;24.20;99.90;;;;;;4901445;29;20127;-82
2022/08/14 21:11:51;;;;;;;10.80;8.23;;;24.20;99.90;;;;;;4902569;29;20527;-84
2022/08/14 21:14:19;;;;;;;8.38;7.57;;;24.10;99.90;;;;;;4894430;29;20471;-83
2022/08/14 21:16:46;;;;;;;10.48;7.70;;;24.10;99.90;;;;;;4922247;29;20048;-84
2022/08/14 21:19:14;;;;;;;9.48;8.32;;;24.10;99.90;;;;;;4906615;29;20046;-81
2022/08/14 21:21:44;;;;;;;12.05;8.73;;;24.00;99.90;;;;;;4939435;29;20044;-81
2022/08/14 21:24:12;;;;;;;11.55;9.07;;;24.00;99.90;;;;;;4921925;29;20050;-81
2022/08/14 21:26:39;;;;;;;10.48;8.60;;;24.00;99.90;;;;;;4938315;29;20043;-84
2022/08/14 21:29:04;;;;;;;11.32;9.30;;;24.00;99.90;;;;;;4922192;29;20051;-81
2022/08/14 21:31:30;;;;;;;11.65;9.60;;;24.00;99.90;;;;;;4921465;29;20044;-80
2022/08/14 21:33:56;;;;;;;10.95;9.10;;;23.90;99.90;;;;;;4922182;29;20130;-81
2022/08/14 21:36:23;;;;;;;11.18;9.20;;;23.90;99.90;;;;;;4921983;29;20048;-82
2022/08/14 21:38:49;;;;;;;12.27;8.10;;;23.90;99.90;;;;;;4921705;29;20518;-81
2022/08/14 21:41:26;;;;;;;10.88;8.15;;;23.90;99.90;;;;;;4938922;29;20107;-84
2022/08/14 21:44:04;;;;;;;10.63;8.30;;;23.80;99.90;;;;;;4921507;29;20051;-84
2022/08/14 21:46:51;;;;;;;9.65;8.05;;;23.80;99.90;;;;;;4921897;29;20051;-82
2022/08/14 21:49:24;;;;;;;9.25;8.35;;;23.70;99.90;;;;;;4938592;29;20127;-81
2022/08/14 21:52:00;;;;;;;9.18;8.27;;;23.70;99.90;;;;;;4921474;29;20042;-84
2022/08/14 21:54:30;;;;;;;10.43;8.50;;;23.70;99.90;;;;;;4938891;29;20047;-83
2022/08/14 21:56:56;;;;;;;11.68;9.90;;;23.60;99.90;;;;;;4938914;29;20039;-83
2022/08/14 21:59:25;;;;;;;14.93;11.25;;;23.60;99.90;;;;;;4922075;29;20059;-82
2022/08/14 22:01:52;;;;;;;15.15;10.32;;;23.60;99.90;;;;;;4938993;29;20042;-84
2022/08/14 22:04:18;;;;;;;12.07;9.73;;;23.50;99.90;;;;;;4938766;29;20178;-81
2022/08/14 22:06:44;;;;;;;12.50;9.35;;;23.50;99.90;;;;;;4921980;29;20103;-82
2022/08/14 22:09:12;;;;;;;14.48;9.75;;;23.40;99.90;;;;;;4922106;29;20400;-82
2022/08/14 22:11:39;;;;;;;11.60;9.93;;;23.40;99.90;;;;;;4921688;29;20392;-84
2022/08/14 22:14:07;;;;;;;15.68;9.75;;;23.30;99.90;;;;;;4921823;29;20044;-81
